createdAt,value
2022-11-01T00:01:15.217Z,4.30
2022-11-01T00:03:42.665Z,4.63
2022-11-01T00:06:10.104Z,3.90
2022-11-01T00:08:37.566Z,4.03
2022-11-01T00:11:05.613Z,4.23
2022-11-01T00:13:33.043Z,4.07
2022-11-01T00:16:01.787Z,4.40
2022-11-01T00:18:29.212Z,4.20
2022-11-01T00:20:56.638Z,3.73
2022-11-01T00:23:24.229Z,3.93
2022-11-01T00:25:51.614Z,4.07
2022-11-01T00:28:19.036Z,4.17
2022-11-01T00:30:46.826Z,4.53
2022-11-01T00:33:15.582Z,4.73
2022-11-01T00:35:42.981Z,4.00
2022-11-01T00:38:10.392Z,4.40
2022-11-01T00:40:37.769Z,4.37
2022-11-01T00:43:05.217Z,4.40
2022-11-01T00:45:32.677Z,4.20
2022-11-01T00:48:00.471Z,4.73
2022-11-01T00:50:29.553Z,4.50
2022-11-01T00:52:56.971Z,4.80
2022-11-01T00:55:24.342Z,4.33
2022-11-01T00:57:51.785Z,4.70
2022-11-01T01:00:19.424Z,5.03
2022-11-01T01:02:46.805Z,4.80
2022-11-01T01:05:14.305Z,4.50
2022-11-01T01:07:43.100Z,5.07
2022-11-01T01:10:10.863Z,5.40
2022-11-01T01:12:38.466Z,5.80
2022-11-01T01:15:06.449Z,4.80
2022-11-01T01:17:34.077Z,4.80
2022-11-01T01:20:01.626Z,5.00
2022-11-01T01:22:29.375Z,5.17
2022-11-01T01:24:58.149Z,4.63
2022-11-01T01:27:25.532Z,5.03
2022-11-01T01:29:52.966Z,4.80
2022-11-01T01:32:21.865Z,5.37
2022-11-01T01:34:49.671Z,4.60
2022-11-01T01:37:17.346Z,4.80
2022-11-01T01:39:44.948Z,4.97
2022-11-01T01:42:16.936Z,5.23
2022-11-01T01:45:02.413Z,4.87
2022-11-01T01:47:30.876Z,4.40
2022-11-01T01:50:00.494Z,4.80
2022-11-01T01:52:28.287Z,4.77
2022-11-01T01:54:55.969Z,4.70
2022-11-01T01:57:25.050Z,4.80
2022-11-01T01:59:52.527Z,4.90
2022-11-01T02:02:21.241Z,4.23
2022-11-01T02:04:51.774Z,4.80
2022-11-01T02:07:19.148Z,4.97
2022-11-01T02:09:46.596Z,5.30
2022-11-01T02:12:14.741Z,4.70
2022-11-01T02:14:45.422Z,4.40
2022-11-01T02:17:16.114Z,4.57
2022-11-01T02:20:00.291Z,4.70
2022-11-01T02:22:35.458Z,4.60
2022-11-01T02:25:10.704Z,4.47
2022-11-01T02:27:45.583Z,4.00
2022-11-01T02:30:14.941Z,4.50
2022-11-01T02:32:52.045Z,4.13
2022-11-01T02:35:23.779Z,4.47
2022-11-01T02:37:53.399Z,4.23
2022-11-01T02:40:26.196Z,4.47
2022-11-01T02:42:54.772Z,4.57
2022-11-01T02:45:28.991Z,4.10
2022-11-01T02:47:58.982Z,3.70
2022-11-01T02:50:27.459Z,4.20
2022-11-01T02:52:55.425Z,3.90
2022-11-01T02:55:30.802Z,4.20
2022-11-01T02:57:59.454Z,4.33
2022-11-01T03:00:28.121Z,4.10
2022-11-01T03:02:57.638Z,4.00
2022-11-01T03:05:28.652Z,4.17
2022-11-01T03:07:58.170Z,4.57
2022-11-01T03:10:29.615Z,4.00
2022-11-01T03:13:10.281Z,4.17
2022-11-01T03:15:41.158Z,3.80
2022-11-01T03:18:11.910Z,3.83
2022-11-01T03:20:48.305Z,3.97
2022-11-01T03:23:16.944Z,4.20
2022-11-01T03:25:46.986Z,3.90
2022-11-01T03:28:16.103Z,3.97
2022-11-01T03:30:46.312Z,3.87
2022-11-01T03:33:14.576Z,4.13
2022-11-01T03:35:45.541Z,4.17
2022-11-01T03:38:15.014Z,4.40
2022-11-01T03:40:45.393Z,3.90
2022-11-01T03:43:15.198Z,4.10
2022-11-01T03:45:42.831Z,4.23
2022-11-01T03:48:10.446Z,4.47
2022-11-01T03:50:38.290Z,4.07
2022-11-01T03:53:07.096Z,4.17
2022-11-01T03:55:34.478Z,4.10
2022-11-01T03:58:02.367Z,3.83
2022-11-01T04:00:31.155Z,4.47
2022-11-01T04:02:59.308Z,3.80
2022-11-01T04:05:28.412Z,4.33
2022-11-01T04:07:55.895Z,4.33
2022-11-01T04:10:25.370Z,4.33
2022-11-01T04:12:53.338Z,4.13
2022-11-01T04:15:39.481Z,3.90
2022-11-01T04:18:25.572Z,3.90
2022-11-01T04:20:53.558Z,3.90
2022-11-01T04:23:21.017Z,3.77
2022-11-01T04:25:49.766Z,3.33
2022-11-01T04:28:17.186Z,3.50
2022-11-01T04:30:44.845Z,3.70
2022-11-01T04:33:12.287Z,3.83
2022-11-01T04:35:39.990Z,3.77
2022-11-01T04:38:07.748Z,3.93
2022-11-01T04:40:35.192Z,3.63
2022-11-01T04:43:04.058Z,3.90
2022-11-01T04:45:31.582Z,3.70
2022-11-01T04:48:02.879Z,3.40
2022-11-01T04:50:30.858Z,3.70
2022-11-01T04:52:58.861Z,3.80
2022-11-01T04:55:26.409Z,3.73
2022-11-01T04:57:53.828Z,3.70
2022-11-01T05:00:22.986Z,3.80
2022-11-01T05:02:50.680Z,3.67
2022-11-01T05:05:18.693Z,3.90
2022-11-01T05:07:46.126Z,3.83
2022-11-01T05:10:13.893Z,3.63
2022-11-01T05:12:41.323Z,3.33
2022-11-01T05:15:09.498Z,3.77
2022-11-01T05:17:41.583Z,4.00
2022-11-01T05:20:09.616Z,3.47
2022-11-01T05:22:37.524Z,4.13
2022-11-01T05:25:05.198Z,3.43
2022-11-01T05:27:32.624Z,3.33
2022-11-01T05:30:00.031Z,3.60
2022-11-01T05:32:27.420Z,3.30
2022-11-01T05:34:56.143Z,3.50
2022-11-01T05:37:27.940Z,3.17
2022-11-01T05:39:55.637Z,3.10
2022-11-01T05:42:23.029Z,3.47
2022-11-01T05:44:50.423Z,3.60
2022-11-01T05:47:17.828Z,3.00
2022-11-01T05:49:45.231Z,3.37
2022-11-01T05:52:14.005Z,3.60
2022-11-01T05:54:41.365Z,3.60
2022-11-01T05:57:08.776Z,3.90
2022-11-01T05:59:36.178Z,3.40
2022-11-01T06:02:03.677Z,3.80
2022-11-01T06:04:31.156Z,3.50
2022-11-01T06:06:58.558Z,3.50
2022-11-01T06:09:27.319Z,3.37
2022-11-01T06:11:54.711Z,3.90
2022-11-01T06:14:22.249Z,3.63
2022-11-01T06:16:49.684Z,3.60
2022-11-01T06:19:17.067Z,3.30
2022-11-01T06:21:44.553Z,3.23
2022-11-01T06:24:12.259Z,3.00
2022-11-01T06:26:41.032Z,2.43
2022-11-01T06:29:08.621Z,2.47
2022-11-01T06:31:36.253Z,2.90
2022-11-01T06:34:03.764Z,2.47
2022-11-01T06:36:31.194Z,2.27
2022-11-01T06:38:58.632Z,2.30
2022-11-01T06:41:26.025Z,2.10
2022-11-01T06:43:54.923Z,2.20
2022-11-01T06:46:22.368Z,2.00
2022-11-01T06:48:49.869Z,2.40
2022-11-01T06:51:17.723Z,2.00
2022-11-01T06:53:45.528Z,2.10
2022-11-01T06:56:12.933Z,1.83
2022-11-01T06:58:40.340Z,2.00
2022-11-01T07:01:09.162Z,1.93
2022-11-01T07:03:37.040Z,2.10
2022-11-01T07:06:04.620Z,2.30
2022-11-01T07:08:32.023Z,2.17
2022-11-01T07:11:00.509Z,2.07
2022-11-01T07:13:31.100Z,2.13
2022-11-01T07:15:58.502Z,2.37
2022-11-01T07:18:29.781Z,2.23
2022-11-01T07:20:57.210Z,2.10
2022-11-01T07:23:24.618Z,1.80
2022-11-01T07:25:52.461Z,1.97
2022-11-01T07:28:20.672Z,1.70
2022-11-01T07:30:48.513Z,1.57
2022-11-01T07:33:15.922Z,1.70
2022-11-01T07:35:44.657Z,1.40
2022-11-01T07:38:13.314Z,1.40
2022-11-01T07:40:41.207Z,1.40
2022-11-01T07:43:08.670Z,1.60
2022-11-01T07:45:37.462Z,1.50
2022-11-01T07:48:06.124Z,1.37
2022-11-01T07:50:34.394Z,1.10
2022-11-01T07:53:03.574Z,1.37
2022-11-01T07:55:30.957Z,1.50
2022-11-01T07:57:58.307Z,1.37
2022-11-01T08:00:25.980Z,1.73
2022-11-01T08:02:53.626Z,1.33
2022-11-01T08:05:21.011Z,1.40
2022-11-01T08:07:48.399Z,1.30
2022-11-01T08:10:17.392Z,1.20
2022-11-01T08:12:44.747Z,1.17
2022-11-01T08:15:12.306Z,1.50
2022-11-01T08:17:39.686Z,1.20
2022-11-01T08:20:07.975Z,1.40
2022-11-01T08:22:35.505Z,1.43
2022-11-01T08:25:02.928Z,1.33
2022-11-01T08:27:34.419Z,1.40
2022-11-01T08:30:02.890Z,1.20
2022-11-01T08:32:30.282Z,1.30
2022-11-01T08:34:57.675Z,1.60
2022-11-01T08:37:25.065Z,1.77
2022-11-01T08:39:52.442Z,1.80
2022-11-01T08:42:20.142Z,1.70
2022-11-01T08:44:48.850Z,1.63
2022-11-01T08:47:16.246Z,1.50
2022-11-01T08:49:43.634Z,1.70
2022-11-01T08:52:11.072Z,1.97
2022-11-01T08:54:38.467Z,1.40
2022-11-01T08:57:05.822Z,2.00
2022-11-01T08:59:33.300Z,1.20
2022-11-01T09:02:02.133Z,1.10
2022-11-01T09:04:29.663Z,1.10
2022-11-01T09:06:57.040Z,1.57
2022-11-01T09:09:24.475Z,1.13
2022-11-01T09:11:52.762Z,1.10
2022-11-01T09:14:23.851Z,1.40
2022-11-01T09:16:51.328Z,1.50
2022-11-01T09:19:20.247Z,1.83
2022-11-01T09:21:47.821Z,1.27
2022-11-01T09:24:16.050Z,1.20
2022-11-01T09:26:43.720Z,1.40
2022-11-01T09:29:11.615Z,1.60
2022-11-01T09:31:39.036Z,1.27
2022-11-01T09:34:06.434Z,1.30
2022-11-01T09:36:35.258Z,1.23
2022-11-01T09:39:02.675Z,1.40
2022-11-01T09:41:33.055Z,1.40
2022-11-01T09:44:01.262Z,1.30
2022-11-01T09:46:31.260Z,1.40
2022-11-01T09:49:00.010Z,1.23
2022-11-01T09:51:28.519Z,1.50
2022-11-01T09:53:58.777Z,1.10
2022-11-01T09:56:30.551Z,1.27
2022-11-01T09:59:02.849Z,1.23
2022-11-01T10:01:41.547Z,1.20
2022-11-01T10:04:26.818Z,1.10
2022-11-01T10:06:58.877Z,1.00
2022-11-01T10:09:30.780Z,1.40
2022-11-01T10:12:04.067Z,1.20
2022-11-01T10:14:46.089Z,1.30
2022-11-01T10:17:14.436Z,1.50
2022-11-01T10:19:43.889Z,1.17
2022-11-01T10:22:15.366Z,1.10
2022-11-01T10:24:45.623Z,1.10
2022-11-01T10:27:15.859Z,1.10
2022-11-01T10:29:45.969Z,1.33
2022-11-01T10:32:16.783Z,1.40
2022-11-01T10:34:44.233Z,1.20
2022-11-01T10:37:16.076Z,1.20
2022-11-01T10:39:54.996Z,1.10
2022-11-01T10:42:24.502Z,1.23
2022-11-01T10:44:55.258Z,1.30
2022-11-01T10:47:23.730Z,1.00
2022-11-01T10:50:05.297Z,1.00
2022-11-01T10:52:35.347Z,1.30
2022-11-01T10:55:04.449Z,1.47
2022-11-01T10:57:34.242Z,1.10
2022-11-01T11:00:04.191Z,1.20
2022-11-01T11:02:34.918Z,1.20
2022-11-01T11:05:02.403Z,1.40
2022-11-01T11:07:30.972Z,1.10
2022-11-01T11:09:58.520Z,1.40
2022-11-01T11:12:27.923Z,1.30
2022-11-01T11:14:57.606Z,1.30
2022-11-01T11:17:28.847Z,0.97
2022-11-01T11:20:01.405Z,1.23
2022-11-01T11:22:29.009Z,1.23
2022-11-01T11:24:58.812Z,1.10
2022-11-01T11:27:29.465Z,1.30
2022-11-01T11:29:58.678Z,1.10
2022-11-01T11:32:27.149Z,1.00
2022-11-01T11:34:56.003Z,1.50
2022-11-01T11:37:24.430Z,1.20
2022-11-01T11:40:10.381Z,1.17
2022-11-01T11:42:39.503Z,1.50
2022-11-01T11:45:15.643Z,1.40
2022-11-01T11:47:43.116Z,1.10
2022-11-01T11:50:24.096Z,1.17
2022-11-01T11:52:52.811Z,1.13
2022-11-01T11:55:27.767Z,1.20
2022-11-01T11:57:57.141Z,1.43
2022-11-01T12:00:28.213Z,1.30
2022-11-01T12:02:55.770Z,1.07
2022-11-01T12:05:26.611Z,1.20
2022-11-01T12:07:55.242Z,1.23
2022-11-01T12:10:30.427Z,1.53
2022-11-01T12:12:59.552Z,1.30
2022-11-01T12:15:28.382Z,1.37
2022-11-01T12:17:56.493Z,1.70
2022-11-01T12:20:25.120Z,1.63
2022-11-01T12:22:54.405Z,1.50
2022-11-01T12:25:23.372Z,1.57
2022-11-01T12:27:56.148Z,1.30
2022-11-01T12:30:26.485Z,1.53
2022-11-01T12:32:54.972Z,1.53
2022-11-01T12:35:25.500Z,1.57
2022-11-01T12:38:06.207Z,1.43
2022-11-01T12:40:36.960Z,1.63
2022-11-01T12:43:07.808Z,1.30
2022-11-01T12:45:43.934Z,1.30
2022-11-01T12:48:13.711Z,1.50
2022-11-01T12:50:43.834Z,1.40
2022-11-01T12:53:13.031Z,1.60
2022-11-01T12:55:41.165Z,1.20
2022-11-01T12:58:13.299Z,1.10
2022-11-01T13:00:50.474Z,1.33
2022-11-01T13:03:23.285Z,1.53
2022-11-01T13:05:54.700Z,1.40
2022-11-01T13:08:27.567Z,1.70
2022-11-01T13:10:58.326Z,1.73
2022-11-01T13:13:29.537Z,1.27
2022-11-01T13:16:02.552Z,1.40
2022-11-01T13:18:35.830Z,1.40
2022-11-01T13:21:07.207Z,1.70
2022-11-01T13:23:37.198Z,1.60
2022-11-01T13:26:07.606Z,1.53
2022-11-01T13:28:44.918Z,1.70
2022-11-01T13:31:18.783Z,1.30
2022-11-01T13:33:49.027Z,1.13
2022-11-01T13:36:18.863Z,1.50
2022-11-01T13:38:49.907Z,1.60
2022-11-01T13:41:21.338Z,1.17
2022-11-01T13:43:50.925Z,1.50
2022-11-01T13:46:26.165Z,1.30
2022-11-01T13:49:06.460Z,1.10
2022-11-01T13:51:39.365Z,1.10
2022-11-01T13:54:10.884Z,1.57
2022-11-01T13:56:41.559Z,1.30
2022-11-01T13:59:13.948Z,1.67
2022-11-01T14:01:42.750Z,1.13
2022-11-01T14:04:29.079Z,1.50
2022-11-01T14:07:07.317Z,1.50
2022-11-01T14:09:43.245Z,1.50
2022-11-01T14:12:12.397Z,1.47
2022-11-01T14:14:49.676Z,1.07
2022-11-01T14:17:36.004Z,1.50
2022-11-01T14:20:22.538Z,1.77
2022-11-01T14:22:51.315Z,1.50
2022-11-01T14:25:30.335Z,1.40
2022-11-01T14:28:12.618Z,1.33
2022-11-01T14:30:42.673Z,1.13
2022-11-01T14:33:14.569Z,1.40
2022-11-01T14:35:43.704Z,1.60
2022-11-01T14:38:13.890Z,1.40
2022-11-01T14:40:42.591Z,1.37
2022-11-01T14:43:14.063Z,1.40
2022-11-01T14:45:44.515Z,1.20
2022-11-01T14:48:16.344Z,1.40
2022-11-01T14:50:47.728Z,1.50
2022-11-01T14:53:20.512Z,1.03
2022-11-01T14:55:47.880Z,1.00
2022-11-01T14:58:19.949Z,1.20
2022-11-01T15:00:50.552Z,1.30
2022-11-01T15:03:18.932Z,1.50
2022-11-01T15:05:47.860Z,1.50
2022-11-01T15:08:31.812Z,1.50
2022-11-01T15:11:01.285Z,1.57
2022-11-01T15:13:29.493Z,1.37
2022-11-01T15:16:01.927Z,1.10
2022-11-01T15:18:29.587Z,1.53
2022-11-01T15:20:58.717Z,1.40
2022-11-01T15:23:29.263Z,1.50
2022-11-01T15:25:58.908Z,1.70
2022-11-01T15:28:27.163Z,1.50
2022-11-01T15:30:56.310Z,1.43
2022-11-01T15:33:24.699Z,1.33
2022-11-01T15:35:55.685Z,1.40
2022-11-01T15:38:23.457Z,1.13
2022-11-01T15:40:52.193Z,1.30
2022-11-01T15:43:22.180Z,1.37
2022-11-01T15:45:52.204Z,2.00
2022-11-01T15:48:21.644Z,1.77
2022-11-01T15:50:51.358Z,1.43
2022-11-01T15:53:21.414Z,1.30
2022-11-01T15:55:50.625Z,1.60
2022-11-01T15:58:20.336Z,1.50
2022-11-01T16:00:51.005Z,2.00
2022-11-01T16:03:20.241Z,2.30
2022-11-01T16:05:52.988Z,1.67
2022-11-01T16:08:26.096Z,1.77
2022-11-01T16:10:53.706Z,1.50
2022-11-01T16:13:21.341Z,1.60
2022-11-01T16:16:03.758Z,1.67
2022-11-01T16:18:34.115Z,1.57
2022-11-01T16:21:02.187Z,1.80
2022-11-01T16:23:29.760Z,1.70
2022-11-01T16:26:04.861Z,1.40
2022-11-01T16:28:37.515Z,1.90
2022-11-01T16:31:18.153Z,2.07
2022-11-01T16:33:46.459Z,1.40
2022-11-01T16:36:32.319Z,1.73
2022-11-01T16:38:59.730Z,1.80
2022-11-01T16:41:28.750Z,1.80
2022-11-01T16:43:56.858Z,1.93
2022-11-01T16:46:26.136Z,1.60
2022-11-01T16:48:55.180Z,1.70
2022-11-01T16:51:24.900Z,2.70
2022-11-01T16:53:52.345Z,2.17
2022-11-01T16:56:36.089Z,1.63
2022-11-01T16:59:07.462Z,3.50
2022-11-01T17:01:36.546Z,5.87
2022-11-01T17:04:04.855Z,5.70
2022-11-01T17:06:36.107Z,3.73
2022-11-01T17:09:10.456Z,2.27
2022-11-01T17:11:37.847Z,3.37
2022-11-01T17:14:05.222Z,2.50
2022-11-01T17:16:32.863Z,2.17
2022-11-01T17:19:02.457Z,2.43
2022-11-01T17:21:31.379Z,2.20
2022-11-01T17:23:59.330Z,2.20
2022-11-01T17:26:26.786Z,2.80
2022-11-01T17:28:54.148Z,5.57
2022-11-01T17:31:21.561Z,11.67
2022-11-01T17:33:48.955Z,10.17
2022-11-01T17:36:18.409Z,4.80
2022-11-01T17:38:46.594Z,3.97
2022-11-01T17:41:17.989Z,3.50
2022-11-01T17:43:45.345Z,3.03
2022-11-01T17:46:14.182Z,2.77
2022-11-01T17:48:41.578Z,2.90
2022-11-01T17:51:09.199Z,2.63
2022-11-01T17:53:39.425Z,2.60
2022-11-01T17:56:07.245Z,2.47
2022-11-01T17:58:34.758Z,2.47
2022-11-01T18:01:02.342Z,2.50
2022-11-01T18:03:29.772Z,2.20
2022-11-01T18:05:57.694Z,2.03
2022-11-01T18:08:27.104Z,2.10
2022-11-01T18:11:01.840Z,2.10
2022-11-01T18:13:34.824Z,2.13
2022-11-01T18:16:04.685Z,2.57
2022-11-01T18:18:44.784Z,2.10
2022-11-01T18:21:15.395Z,2.50
2022-11-01T18:23:45.090Z,2.40
2022-11-01T18:26:16.685Z,2.63
2022-11-01T18:28:44.182Z,1.97
2022-11-01T18:31:13.358Z,1.80
2022-11-01T18:33:44.446Z,2.27
2022-11-01T18:36:16.534Z,1.87
2022-11-01T18:38:46.692Z,2.07
2022-11-01T18:41:17.886Z,2.00
2022-11-01T18:43:45.262Z,1.97
2022-11-01T18:46:30.394Z,2.00
2022-11-01T18:49:00.662Z,2.80
2022-11-01T18:51:28.986Z,1.67
2022-11-01T18:54:01.721Z,2.60
2022-11-01T18:56:31.258Z,2.30
2022-11-01T18:59:00.275Z,2.30
2022-11-01T19:01:31.315Z,2.20
2022-11-01T19:04:00.885Z,1.77
2022-11-01T19:06:28.342Z,2.20
2022-11-01T19:08:56.543Z,2.17
2022-11-01T19:11:24.360Z,2.60
2022-11-01T19:13:53.120Z,2.67
2022-11-01T19:16:21.238Z,2.43
2022-11-01T19:18:50.628Z,2.20
2022-11-01T19:21:18.876Z,2.60
2022-11-01T19:23:48.305Z,2.10
2022-11-01T19:26:19.321Z,2.60
2022-11-01T19:28:48.684Z,2.60
2022-11-01T19:31:24.584Z,2.33
2022-11-01T19:33:55.484Z,2.40
2022-11-01T19:36:24.262Z,2.50
2022-11-01T19:38:53.205Z,2.17
2022-11-01T19:41:22.836Z,2.10
2022-11-01T19:43:50.461Z,2.23
2022-11-01T19:46:19.619Z,1.93
2022-11-01T19:48:48.674Z,2.00
2022-11-01T19:51:17.928Z,2.10
2022-11-01T19:53:46.055Z,2.27
2022-11-01T19:56:14.657Z,2.00
2022-11-01T19:58:43.632Z,2.10
2022-11-01T20:01:22.787Z,2.00
2022-11-01T20:03:55.361Z,2.20
2022-11-01T20:06:24.047Z,2.10
2022-11-01T20:08:52.704Z,1.97
2022-11-01T20:11:20.783Z,2.30
2022-11-01T20:13:48.197Z,2.30
2022-11-01T20:16:15.639Z,3.23
2022-11-01T20:18:43.116Z,3.43
2022-11-01T20:21:12.997Z,3.03
2022-11-01T20:23:40.394Z,3.83
2022-11-01T20:26:07.754Z,4.03
2022-11-01T20:28:35.356Z,5.90
2022-11-01T20:31:05.129Z,7.00
2022-11-01T20:33:32.620Z,8.77
2022-11-01T20:36:00.269Z,5.60
2022-11-01T20:38:29.004Z,4.23
2022-11-01T20:40:56.404Z,4.20
2022-11-01T20:43:23.897Z,2.73
2022-11-01T20:45:51.370Z,3.10
2022-11-01T20:48:19.166Z,2.50
2022-11-01T20:50:46.612Z,2.53
2022-11-01T20:53:14.790Z,2.30
2022-11-01T20:55:43.684Z,2.10
2022-11-01T20:58:11.526Z,2.23
2022-11-01T21:00:39.623Z,2.67
2022-11-01T21:03:13.135Z,1.90
2022-11-01T21:05:41.066Z,1.97
2022-11-01T21:08:12.575Z,2.20
2022-11-01T21:10:40.933Z,2.20
2022-11-01T21:13:21.867Z,2.67
2022-11-01T21:15:49.373Z,2.00
2022-11-01T21:18:33.805Z,1.97
2022-11-01T21:21:09.767Z,2.60
2022-11-01T21:23:37.152Z,2.37
2022-11-01T21:26:11.344Z,2.20
2022-11-01T21:28:43.088Z,2.10
2022-11-01T21:31:17.559Z,2.63
2022-11-01T21:33:49.820Z,2.07
2022-11-01T21:36:23.026Z,2.80
2022-11-01T21:38:51.941Z,2.30
2022-11-01T21:41:25.422Z,2.10
2022-11-01T21:43:54.245Z,2.67
2022-11-01T21:46:22.516Z,2.10
2022-11-01T21:48:51.064Z,2.23
2022-11-01T21:51:18.591Z,2.10
2022-11-01T21:53:46.079Z,2.17
2022-11-01T21:56:13.520Z,2.60
2022-11-01T21:58:40.913Z,2.70
2022-11-01T22:01:09.793Z,2.00
2022-11-01T22:03:37.264Z,2.23
2022-11-01T22:06:04.800Z,1.80
2022-11-01T22:08:32.253Z,2.20
2022-11-01T22:10:59.642Z,2.33
2022-11-01T22:13:27.043Z,2.00
2022-11-01T22:15:54.412Z,2.00
2022-11-01T22:18:25.261Z,2.40
2022-11-01T22:20:52.957Z,2.10
2022-11-01T22:23:20.453Z,1.70
2022-11-01T22:25:47.870Z,2.23
2022-11-01T22:28:15.286Z,1.90
2022-11-01T22:30:42.698Z,2.30
2022-11-01T22:33:11.596Z,2.10
2022-11-01T22:35:40.315Z,2.10
2022-11-01T22:38:13.464Z,1.73
2022-11-01T22:40:40.945Z,2.20
2022-11-01T22:43:16.305Z,1.90
2022-11-01T22:45:43.735Z,2.30
2022-11-01T22:48:15.117Z,2.00
2022-11-01T22:50:43.985Z,1.90
2022-11-01T22:53:12.419Z,1.93
2022-11-01T22:55:40.299Z,2.30
2022-11-01T22:58:19.332Z,2.00
2022-11-01T23:00:47.147Z,2.17
2022-11-01T23:03:20.377Z,1.83
2022-11-01T23:05:51.042Z,2.47
2022-11-01T23:08:23.962Z,1.90
2022-11-01T23:10:51.973Z,1.63
2022-11-01T23:13:40.228Z,1.87
2022-11-01T23:16:16.145Z,2.27
2022-11-01T23:18:43.876Z,2.03
2022-11-01T23:21:12.665Z,2.10
2022-11-01T23:23:41.685Z,1.90
2022-11-01T23:26:09.303Z,1.90
2022-11-01T23:28:37.294Z,2.20
2022-11-01T23:31:05.692Z,1.83
2022-11-01T23:33:35.437Z,2.00
2022-11-01T23:36:03.615Z,1.70
2022-11-01T23:38:34.598Z,2.17
2022-11-01T23:41:02.081Z,1.80
2022-11-01T23:43:33.870Z,1.80
2022-11-01T23:46:02.018Z,1.80
2022-11-01T23:48:29.657Z,2.13
2022-11-01T23:50:57.515Z,1.87
2022-11-01T23:53:28.152Z,1.93
2022-11-01T23:55:57.096Z,2.00
2022-11-01T23:58:27.270Z,1.80
